Seven Seas Mariner — C6VV8 — position and weather

sailwx.info

Track history (hours):
 
Tides and Currents Weather Stations Pressure Air Temp Water Temp Dewpoint Dewpoint Depression Visibility Wind Speed Wind Dir Waves Ship Positions

Seven Seas Mariner

Last reported at 2017-Mar-23 22:00 UTC. Time now 2017-Mar-24 17:56 UTC.
Position N 10°48' W 057°36'.

Length 215 m; draft 7.2 m.

Type: Ship. MMSI: 311622000.

Wind from 080 at 15 knots

Barometer 1013.8 mb
Air temperature 27.0 ° C
Visibility: greater than 2.2 NM
Dewpoint 22.8 ° C

Date/timePositionNaut miles runAvg speedWind from/ knotsBaromVisibWave heightAir tempDewpointWater temp
2017-Mar-23 22:00N 10°48' W 057°36'18118.1 080 / 151013.8 2.2 27.022.8
2017-Mar-23 12:00N 08°36' W 055°30'25818.4 070 / 221015.410.8 27.022.8
2017-Mar-22 22:00N 05°24' W 052°36'1313.4 060 / 191014.6 5.4 26.023.2
2017-Mar-22 21:00N 05°12' W 052°30'83 6.9 020 / 91012.8 5.4 28.020.9
2017-Mar-22 09:00N 04°42' W 051°12'27312.1 050 / 181014.6 5.4 26.023.2
2017-Mar-21 10:22N 00°11' W 050°47'922.7
2017-Mar-21 10:00N 00°06' W 050°54'614.1 310 / 41014.6 0.3 24.022.6
2017-Mar-21 09:34N 00°04' W 050°60'1616.4
2017-Mar-21 08:33S 00°08' W 051°12'384 8.4
2017-Mar-19 11:00S 02°36' W 057°06'17312.9 360 / 141011.3 2.2 24.022.624.0
2017-Mar-18 21:34S 03°09' W 059°56'6 5.5
2017-Mar-18 20:32S 03°08' W 060°02'0 0.0
2017-Mar-18 19:25S 03°08' W 060°02'0 0.0
2017-Mar-18 18:03S 03°08' W 060°02'0 0.0
2017-Mar-18 17:30S 03°08' W 060°02'0 0.0
2017-Mar-18 16:30S 03°08' W 060°02'0 0.0
2017-Mar-18 15:29S 03°08' W 060°02'0 0.0
2017-Mar-18 14:29S 03°08' W 060°02'0 0.0
2017-Mar-18 13:32S 03°08' W 060°02'0 0.0
2017-Mar-18 12:22S 03°08' W 060°02'0 0.0
2017-Mar-18 11:25S 03°08' W 060°02'0 0.0
2017-Mar-18 10:30S 03°08' W 060°02'0 0.0
2017-Mar-18 09:33S 03°08' W 060°02'0 0.0
2017-Mar-18 08:32S 03°08' W 060°02'0 0.0
2017-Mar-18 06:32S 03°08' W 060°02'0 0.0
2017-Mar-18 05:31S 03°08' W 060°02'0 0.0
2017-Mar-18 04:31S 03°08' W 060°02'0 0.0
2017-Mar-18 03:33S 03°08' W 060°02'0 0.0
2017-Mar-18 02:33S 03°08' W 060°02'0 0.0
2017-Mar-18 01:29S 03°08' W 060°02'0 0.0
2017-Mar-18 00:29S 03°08' W 060°02'0 0.0
2017-Mar-17 22:22S 03°08' W 060°02'0 0.0
2017-Mar-17 21:29S 03°08' W 060°02'0 0.0
2017-Mar-17 19:31S 03°08' W 060°02'5 0.6
2017-Mar-17 12:12S 03°10' W 059°57'377 7.5
2017-Mar-15 10:00S 01°54' W 053°48'18013.4 270 / 171011.4 5.4 25.023.6
2017-Mar-14 20:33S 00°14' W 051°18'1312.7
2017-Mar-14 19:33S 00°06' W 051°08'6 6.4
2017-Mar-14 18:33S 00°02' W 051°03'1615.7
2017-Mar-14 17:33N 00°10' W 050°53'  
Track history (hours):
 
Tides and Currents Weather Stations Pressure Air Temp Water Temp Dewpoint Dewpoint Depression Visibility Wind Speed Wind Dir Waves Ship Positions

Seven Seas Mariner

Last reported at 2017-Mar-23 22:00 UTC. Time now 2017-Mar-24 17:56 UTC.
Position N 10°48' W 057°36'.

Length 215 m; draft 7.2 m.

Type: Ship. MMSI: 311622000.

Wind from 080 at 15 knots

Barometer 1013.8 mb
Air temperature 27.0 ° C
Visibility: greater than 2.2 NM
Dewpoint 22.8 ° C

Date/timePositionNaut miles runAvg speedWind from/ knotsBaromVisibWave heightAir tempDewpointWater temp
2017-Mar-23 22:00N 10°48' W 057°36'18118.1 080 / 151013.8 2.2 27.022.8
2017-Mar-23 12:00N 08°36' W 055°30'25818.4 070 / 221015.410.8 27.022.8
2017-Mar-22 22:00N 05°24' W 052°36'1313.4 060 / 191014.6 5.4 26.023.2
2017-Mar-22 21:00N 05°12' W 052°30'83 6.9 020 / 91012.8 5.4 28.020.9
2017-Mar-22 09:00N 04°42' W 051°12'27312.1 050 / 181014.6 5.4 26.023.2
2017-Mar-21 10:22N 00°11' W 050°47'922.7
2017-Mar-21 10:00N 00°06' W 050°54'614.1 310 / 41014.6 0.3 24.022.6
2017-Mar-21 09:34N 00°04' W 050°60'1616.4
2017-Mar-21 08:33S 00°08' W 051°12'384 8.4
2017-Mar-19 11:00S 02°36' W 057°06'17312.9 360 / 141011.3 2.2 24.022.624.0
2017-Mar-18 21:34S 03°09' W 059°56'6 5.5
2017-Mar-18 20:32S 03°08' W 060°02'0 0.0
2017-Mar-18 19:25S 03°08' W 060°02'0 0.0
2017-Mar-18 18:03S 03°08' W 060°02'0 0.0
2017-Mar-18 17:30S 03°08' W 060°02'0 0.0
2017-Mar-18 16:30S 03°08' W 060°02'0 0.0
2017-Mar-18 15:29S 03°08' W 060°02'0 0.0
2017-Mar-18 14:29S 03°08' W 060°02'0 0.0
2017-Mar-18 13:32S 03°08' W 060°02'0 0.0
2017-Mar-18 12:22S 03°08' W 060°02'0 0.0
2017-Mar-18 11:25S 03°08' W 060°02'0 0.0
2017-Mar-18 10:30S 03°08' W 060°02'0 0.0
2017-Mar-18 09:33S 03°08' W 060°02'0 0.0
2017-Mar-18 08:32S 03°08' W 060°02'0 0.0
2017-Mar-18 06:32S 03°08' W 060°02'0 0.0
2017-Mar-18 05:31S 03°08' W 060°02'0 0.0
2017-Mar-18 04:31S 03°08' W 060°02'0 0.0
2017-Mar-18 03:33S 03°08' W 060°02'0 0.0
2017-Mar-18 02:33S 03°08' W 060°02'0 0.0
2017-Mar-18 01:29S 03°08' W 060°02'0 0.0
2017-Mar-18 00:29S 03°08' W 060°02'0 0.0
2017-Mar-17 22:22S 03°08' W 060°02'0 0.0
2017-Mar-17 21:29S 03°08' W 060°02'0 0.0
2017-Mar-17 19:31S 03°08' W 060°02'5 0.6
2017-Mar-17 12:12S 03°10' W 059°57'377 7.5
2017-Mar-15 10:00S 01°54' W 053°48'18013.4 270 / 171011.4 5.4 25.023.6
2017-Mar-14 20:33S 00°14' W 051°18'1312.7
2017-Mar-14 19:33S 00°06' W 051°08'6 6.4
2017-Mar-14 18:33S 00°02' W 051°03'1615.7
2017-Mar-14 17:33N 00°10' W 050°53'  

Dump ship's entire track history